sensor_id;sensor_type;location;lat;lon;timestamp;P1;durP1;ratioP1;P2;durP2;ratioP2
57301;SDS011;43149;50.974;18.224;2024-02-28T00:07:40;57.90;;;28.70;;
57301;SDS011;43149;50.974;18.224;2024-02-28T00:17:23;58.10;;;28.30;;
57301;SDS011;43149;50.974;18.224;2024-02-28T00:34:22;40.10;;;18.70;;
57301;SDS011;43149;50.974;18.224;2024-02-28T00:44:05;42.90;;;14.80;;
57301;SDS011;43149;50.974;18.224;2024-02-28T00:53:47;81.60;;;32.90;;
57301;SDS011;43149;50.974;18.224;2024-02-28T01:03:30;55.20;;;23.90;;
57301;SDS011;43149;50.974;18.224;2024-02-28T01:13:13;98.30;;;37.00;;
57301;SDS011;43149;50.974;18.224;2024-02-28T01:22:57;58.60;;;28.80;;
57301;SDS011;43149;50.974;18.224;2024-02-28T01:27:49;135.10;;;65.60;;
57301;SDS011;43149;50.974;18.224;2024-02-28T01:37:33;72.20;;;33.40;;
57301;SDS011;43149;50.974;18.224;2024-02-28T01:47:17;70.90;;;30.90;;
57301;SDS011;43149;50.974;18.224;2024-02-28T01:57:00;70.10;;;27.50;;
57301;SDS011;43149;50.974;18.224;2024-02-28T02:06:44;50.50;;;27.00;;
57301;SDS011;43149;50.974;18.224;2024-02-28T02:16:28;60.80;;;27.70;;
57301;SDS011;43149;50.974;18.224;2024-02-28T02:26:15;69.70;;;30.80;;
57301;SDS011;43149;50.974;18.224;2024-02-28T02:35:59;34.90;;;13.90;;
57301;SDS011;43149;50.974;18.224;2024-02-28T02:45:42;53.70;;;22.50;;
57301;SDS011;43149;50.974;18.224;2024-02-28T02:55:30;38.70;;;21.10;;
57301;SDS011;43149;50.974;18.224;2024-02-28T03:05:12;40.70;;;23.80;;
57301;SDS011;43149;50.974;18.224;2024-02-28T03:14:56;34.80;;;18.20;;
57301;SDS011;43149;50.974;18.224;2024-02-28T03:24:40;31.30;;;16.10;;
57301;SDS011;43149;50.974;18.224;2024-02-28T03:34:23;25.80;;;10.70;;
57301;SDS011;43149;50.974;18.224;2024-02-28T03:44:07;43.90;;;19.60;;
57301;SDS011;43149;50.974;18.224;2024-02-28T03:53:50;62.20;;;25.40;;
57301;SDS011;43149;50.974;18.224;2024-02-28T04:03:43;58.80;;;22.90;;
57301;SDS011;43149;50.974;18.224;2024-02-28T04:13:25;61.00;;;23.60;;
57301;SDS011;43149;50.974;18.224;2024-02-28T04:23:08;74.20;;;31.60;;
57301;SDS011;43149;50.974;18.224;2024-02-28T04:32:51;66.90;;;26.90;;
57301;SDS011;43149;50.974;18.224;2024-02-28T04:42:36;59.00;;;22.40;;
57301;SDS011;43149;50.974;18.224;2024-02-28T04:52:20;69.40;;;30.20;;
57301;SDS011;43149;50.974;18.224;2024-02-28T05:02:02;60.30;;;28.60;;
57301;SDS011;43149;50.974;18.224;2024-02-28T05:11:45;50.60;;;17.10;;
57301;SDS011;43149;50.974;18.224;2024-02-28T05:21:29;54.40;;;22.70;;
57301;SDS011;43149;50.974;18.224;2024-02-28T05:31:22;50.00;;;24.40;;
57301;SDS011;43149;50.974;18.224;2024-02-28T05:41:12;43.30;;;21.30;;
57301;SDS011;43149;50.974;18.224;2024-02-28T05:50:56;48.40;;;20.70;;
57301;SDS011;43149;50.974;18.224;2024-02-28T06:00:50;35.80;;;17.80;;
57301;SDS011;43149;50.974;18.224;2024-02-28T06:10:34;53.80;;;24.60;;
57301;SDS011;43149;50.974;18.224;2024-02-28T06:20:17;46.70;;;19.10;;
57301;SDS011;43149;50.974;18.224;2024-02-28T06:30:09;32.00;;;16.80;;
57301;SDS011;43149;50.974;18.224;2024-02-28T06:39:53;26.30;;;15.80;;
57301;SDS011;43149;50.974;18.224;2024-02-28T06:49:36;31.50;;;11.60;;
57301;SDS011;43149;50.974;18.224;2024-02-28T06:59:20;34.80;;;15.00;;
57301;SDS011;43149;50.974;18.224;2024-02-28T07:09:03;23.40;;;15.40;;
57301;SDS011;43149;50.974;18.224;2024-02-28T07:18:48;45.50;;;20.20;;
57301;SDS011;43149;50.974;18.224;2024-02-28T07:28:32;50.10;;;23.40;;
57301;SDS011;43149;50.974;18.224;2024-02-28T07:38:17;37.80;;;17.30;;
57301;SDS011;43149;50.974;18.224;2024-02-28T07:48:02;37.40;;;15.80;;
57301;SDS011;43149;50.974;18.224;2024-02-28T07:57:50;34.90;;;15.90;;
57301;SDS011;43149;50.974;18.224;2024-02-28T08:07:35;29.30;;;15.90;;
57301;SDS011;43149;50.974;18.224;2024-02-28T08:17:18;28.20;;;14.30;;
57301;SDS011;43149;50.974;18.224;2024-02-28T08:27:02;34.90;;;18.40;;
57301;SDS011;43149;50.974;18.224;2024-02-28T08:36:44;40.00;;;19.80;;
57301;SDS011;43149;50.974;18.224;2024-02-28T08:46:27;33.40;;;16.90;;
57301;SDS011;43149;50.974;18.224;2024-02-28T08:56:12;100.20;;;47.50;;
57301;SDS011;43149;50.974;18.224;2024-02-28T09:05:55;35.30;;;19.60;;
57301;SDS011;43149;50.974;18.224;2024-02-28T09:15:38;36.60;;;16.30;;
57301;SDS011;43149;50.974;18.224;2024-02-28T09:25:21;31.30;;;18.40;;
57301;SDS011;43149;50.974;18.224;2024-02-28T09:30:13;54.00;;;31.60;;
57301;SDS011;43149;50.974;18.224;2024-02-28T09:39:57;36.60;;;20.10;;
57301;SDS011;43149;50.974;18.224;2024-02-28T09:44:49;69.10;;;37.90;;
57301;SDS011;43149;50.974;18.224;2024-02-28T09:54:32;40.00;;;22.60;;
57301;SDS011;43149;50.974;18.224;2024-02-28T10:04:25;55.70;;;22.30;;
57301;SDS011;43149;50.974;18.224;2024-02-28T10:14:11;51.20;;;24.20;;
57301;SDS011;43149;50.974;18.224;2024-02-28T10:23:58;48.90;;;24.10;;
57301;SDS011;43149;50.974;18.224;2024-02-28T10:33:42;44.50;;;21.90;;
57301;SDS011;43149;50.974;18.224;2024-02-28T10:43:29;30.20;;;17.60;;
57301;SDS011;43149;50.974;18.224;2024-02-28T10:53:21;40.70;;;20.30;;
57301;SDS011;43149;50.974;18.224;2024-02-28T11:03:09;63.90;;;26.00;;
57301;SDS011;43149;50.974;18.224;2024-02-28T11:12:59;48.30;;;23.20;;
57301;SDS011;43149;50.974;18.224;2024-02-28T11:22:41;54.40;;;22.20;;
57301;SDS011;43149;50.974;18.224;2024-02-28T11:32:25;53.10;;;22.90;;
57301;SDS011;43149;50.974;18.224;2024-02-28T11:42:13;43.30;;;16.40;;
57301;SDS011;43149;50.974;18.224;2024-02-28T11:51:59;39.60;;;23.40;;
57301;SDS011;43149;50.974;18.224;2024-02-28T12:01:42;54.80;;;22.40;;
57301;SDS011;43149;50.974;18.224;2024-02-28T12:11:36;45.80;;;22.60;;
57301;SDS011;43149;50.974;18.224;2024-02-28T12:21:20;78.60;;;28.50;;
57301;SDS011;43149;50.974;18.224;2024-02-28T12:31:05;55.60;;;24.20;;
57301;SDS011;43149;50.974;18.224;2024-02-28T12:40:54;47.60;;;24.30;;
57301;SDS011;43149;50.974;18.224;2024-02-28T12:50:37;58.40;;;23.80;;
57301;SDS011;43149;50.974;18.224;2024-02-28T12:53:03;78.80;;;40.40;;
57301;SDS011;43149;50.974;18.224;2024-02-28T13:02:46;73.30;;;28.20;;
57301;SDS011;43149;50.974;18.224;2024-02-28T13:12:30;51.70;;;26.70;;
57301;SDS011;43149;50.974;18.224;2024-02-28T13:22:14;45.00;;;20.00;;
57301;SDS011;43149;50.974;18.224;2024-02-28T13:31:59;60.10;;;25.10;;
57301;SDS011;43149;50.974;18.224;2024-02-28T13:41:42;35.40;;;19.40;;
57301;SDS011;43149;50.974;18.224;2024-02-28T13:51:26;44.40;;;19.20;;
57301;SDS011;43149;50.974;18.224;2024-02-28T14:01:12;33.40;;;16.20;;
57301;SDS011;43149;50.974;18.224;2024-02-28T14:10:55;32.70;;;14.90;;
57301;SDS011;43149;50.974;18.224;2024-02-28T14:20:38;29.30;;;13.30;;
57301;SDS011;43149;50.974;18.224;2024-02-28T14:30:22;32.50;;;13.40;;
57301;SDS011;43149;50.974;18.224;2024-02-28T14:40:06;25.50;;;14.10;;
57301;SDS011;43149;50.974;18.224;2024-02-28T14:50:04;34.50;;;12.40;;
57301;SDS011;43149;50.974;18.224;2024-02-28T14:59:47;16.80;;;9.80;;
57301;SDS011;43149;50.974;18.224;2024-02-28T15:09:29;9.60;;;5.70;;
57301;SDS011;43149;50.974;18.224;2024-02-28T15:19:14;28.20;;;11.30;;
57301;SDS011;43149;50.974;18.224;2024-02-28T15:28:57;8.00;;;5.60;;
57301;SDS011;43149;50.974;18.224;2024-02-28T15:38:40;14.80;;;8.70;;
57301;SDS011;43149;50.974;18.224;2024-02-28T15:48:22;14.80;;;10.20;;
57301;SDS011;43149;50.974;18.224;2024-02-28T15:58:10;20.30;;;6.10;;
57301;SDS011;43149;50.974;18.224;2024-02-28T16:07:53;5.10;;;3.40;;
57301;SDS011;43149;50.974;18.224;2024-02-28T16:17:37;13.90;;;9.30;;
57301;SDS011;43149;50.974;18.224;2024-02-28T16:27:21;18.70;;;8.30;;
57301;SDS011;43149;50.974;18.224;2024-02-28T16:37:08;9.60;;;6.50;;
57301;SDS011;43149;50.974;18.224;2024-02-28T16:39:33;14.60;;;9.10;;
57301;SDS011;43149;50.974;18.224;2024-02-28T16:49:16;10.50;;;5.80;;
57301;SDS011;43149;50.974;18.224;2024-02-28T16:59:03;16.00;;;6.90;;
57301;SDS011;43149;50.974;18.224;2024-02-28T17:08:46;13.60;;;7.50;;
57301;SDS011;43149;50.974;18.224;2024-02-28T17:18:30;8.50;;;5.90;;
57301;SDS011;43149;50.974;18.224;2024-02-28T17:28:17;12.80;;;8.40;;
57301;SDS011;43149;50.974;18.224;2024-02-28T17:38:00;14.30;;;9.40;;
57301;SDS011;43149;50.974;18.224;2024-02-28T17:47:45;20.00;;;9.40;;
57301;SDS011;43149;50.974;18.224;2024-02-28T17:57:32;22.20;;;10.30;;
57301;SDS011;43149;50.974;18.224;2024-02-28T18:07:18;20.20;;;11.70;;
57301;SDS011;43149;50.974;18.224;2024-02-28T18:17:03;11.40;;;7.40;;
57301;SDS011;43149;50.974;18.224;2024-02-28T18:26:52;14.90;;;10.50;;
57301;SDS011;43149;50.974;18.224;2024-02-28T18:36:36;8.20;;;7.40;;
57301;SDS011;43149;50.974;18.224;2024-02-28T18:46:21;17.80;;;8.80;;
57301;SDS011;43149;50.974;18.224;2024-02-28T18:56:08;12.00;;;7.90;;
57301;SDS011;43149;50.974;18.224;2024-02-28T19:05:53;13.20;;;6.90;;
57301;SDS011;43149;50.974;18.224;2024-02-28T19:15:37;19.70;;;11.90;;
57301;SDS011;43149;50.974;18.224;2024-02-28T19:25:21;18.90;;;10.10;;
57301;SDS011;43149;50.974;18.224;2024-02-28T19:35:05;14.40;;;5.30;;
57301;SDS011;43149;50.974;18.224;2024-02-28T19:44:58;9.50;;;3.60;;
57301;SDS011;43149;50.974;18.224;2024-02-28T19:47:24;19.60;;;12.30;;
57301;SDS011;43149;50.974;18.224;2024-02-28T19:57:08;9.50;;;7.30;;
57301;SDS011;43149;50.974;18.224;2024-02-28T20:06:52;10.80;;;6.80;;
57301;SDS011;43149;50.974;18.224;2024-02-28T20:16:35;16.60;;;6.60;;
57301;SDS011;43149;50.974;18.224;2024-02-28T20:26:20;17.50;;;6.00;;
57301;SDS011;43149;50.974;18.224;2024-02-28T20:36:03;25.40;;;9.00;;
57301;SDS011;43149;50.974;18.224;2024-02-28T20:45:46;21.20;;;12.60;;
57301;SDS011;43149;50.974;18.224;2024-02-28T20:55:31;26.70;;;13.40;;
57301;SDS011;43149;50.974;18.224;2024-02-28T21:05:15;19.60;;;11.70;;
57301;SDS011;43149;50.974;18.224;2024-02-28T21:15:00;35.80;;;12.10;;
57301;SDS011;43149;50.974;18.224;2024-02-28T21:24:49;36.20;;;14.00;;
57301;SDS011;43149;50.974;18.224;2024-02-28T21:34:31;37.20;;;17.60;;
57301;SDS011;43149;50.974;18.224;2024-02-28T21:44:16;40.10;;;18.00;;
57301;SDS011;43149;50.974;18.224;2024-02-28T21:54:00;29.80;;;13.90;;
57301;SDS011;43149;50.974;18.224;2024-02-28T22:03:42;24.60;;;12.20;;
57301;SDS011;43149;50.974;18.224;2024-02-28T22:13:26;31.90;;;15.80;;
57301;SDS011;43149;50.974;18.224;2024-02-28T22:23:11;46.90;;;15.00;;
57301;SDS011;43149;50.974;18.224;2024-02-28T22:25:36;111.60;;;54.90;;
57301;SDS011;43149;50.974;18.224;2024-02-28T22:35:20;45.80;;;21.70;;
57301;SDS011;43149;50.974;18.224;2024-02-28T22:45:04;37.40;;;15.80;;
57301;SDS011;43149;50.974;18.224;2024-02-28T22:54:47;44.90;;;15.20;;
57301;SDS011;43149;50.974;18.224;2024-02-28T23:04:32;40.30;;;14.70;;
57301;SDS011;43149;50.974;18.224;2024-02-28T23:14:16;42.50;;;16.80;;
57301;SDS011;43149;50.974;18.224;2024-02-28T23:24:05;70.80;;;20.30;;
57301;SDS011;43149;50.974;18.224;2024-02-28T23:33:49;68.00;;;27.30;;
57301;SDS011;43149;50.974;18.224;2024-02-28T23:43:32;35.60;;;14.70;;
57301;SDS011;43149;50.974;18.224;2024-02-28T23:53:15;65.70;;;27.10;;
